Time;durP1;ratioP1;P1;durP2;ratioP2;P2;SDS_P1;SDS_P2;PMS_P1;PMS_P2;Temp;Humidity;BMP_temperature;BMP_pressure;BME280_temperature;BME280_humidity;BME280_pressure;Samples;Min_cycle;Max_cycle;Signal;HPM_P1;HPM_P2
2021/12/21 00:00:48;;;;;;;7.83;4.57;;;-1.70;88.10;;;;;;5053159;28;20224;-86
2021/12/21 00:03:14;;;;;;;8.13;4.53;;;-1.70;88.00;;;;;;5053053;28;20202;-86
2021/12/21 00:05:40;;;;;;;10.53;4.57;;;-1.70;88.00;;;;;;5053405;28;20172;-86
2021/12/21 00:08:11;;;;;;;13.93;4.77;;;-1.70;87.90;;;;;;5051768;28;20184;-86
2021/12/21 00:10:39;;;;;;;11.50;5.00;;;-1.70;87.70;;;;;;5052967;28;20559;-86
2021/12/21 00:13:21;;;;;;;7.80;4.90;;;-1.90;87.80;;;;;;5051831;28;20172;-86
2021/12/21 00:18:38;;;;;;;5.53;4.20;;;-1.90;88.30;;;;;;5053597;28;20171;-86
2021/12/21 00:21:30;;;;;;;13.10;5.17;;;-1.90;88.20;;;;;;5051987;28;20210;-85
2021/12/21 00:23:55;;;;;;;19.67;5.00;;;-1.90;88.20;;;;;;5053003;28;20180;-86
2021/12/21 00:26:21;;;;;;;6.43;4.63;;;-1.90;88.40;;;;;;5051712;28;20255;-86
2021/12/21 00:31:14;;;;;;;6.70;4.77;;;-1.90;88.30;;;;;;5053091;28;20200;-86
2021/12/21 00:33:41;;;;;;;7.70;4.63;;;-2.00;88.30;;;;;;5051599;28;20186;-86
2021/12/21 00:36:09;;;;;;;9.40;4.93;;;-2.00;88.20;;;;;;5052896;28;20167;-86
2021/12/21 00:38:35;;;;;;;11.10;5.80;;;-2.00;88.10;;;;;;5053156;28;20632;-86
2021/12/21 00:41:01;;;;;;;12.83;5.70;;;-2.00;88.10;;;;;;5052695;28;20241;-86
2021/12/21 00:43:27;;;;;;;7.97;5.40;;;-2.00;88.60;;;;;;5051560;28;20186;-86
2021/12/21 00:45:52;;;;;;;10.10;5.20;;;-2.10;89.00;;;;;;5053718;28;20175;-86
2021/12/21 00:48:18;;;;;;;8.70;5.90;;;-2.00;89.20;;;;;;5055324;28;20529;-86
2021/12/21 00:50:44;;;;;;;8.57;5.30;;;-2.10;89.30;;;;;;5056466;28;20223;-85
2021/12/21 00:53:12;;;;;;;9.33;4.50;;;-2.10;89.20;;;;;;5055238;28;20188;-86
2021/12/21 00:55:37;;;;;;;7.47;5.13;;;-2.10;89.20;;;;;;5055191;28;20726;-86
2021/12/21 00:58:03;;;;;;;7.30;4.87;;;-2.20;89.30;;;;;;5056624;28;20291;-86
2021/12/21 01:00:29;;;;;;;7.23;4.67;;;-2.20;89.40;;;;;;5055072;28;20199;-85
2021/12/21 01:02:57;;;;;;;7.33;5.27;;;-2.20;89.40;;;;;;5056345;28;20628;-86
2021/12/21 01:05:33;;;;;;;9.33;5.13;;;-2.20;89.40;;;;;;5055084;28;20178;-86
2021/12/21 01:08:01;;;;;;;10.57;5.17;;;-2.30;89.40;;;;;;5055110;28;20183;-86
2021/12/21 01:18:17;;;;;;;9.00;5.03;;;-2.30;89.20;;;;;;5055920;28;20280;-86
2021/12/21 01:21:07;;;;;;;7.50;4.37;;;-2.30;89.20;;;;;;5054658;28;20195;-86
2021/12/21 01:23:50;;;;;;;7.70;5.17;;;-2.40;89.10;;;;;;5055545;28;20187;-86
2021/12/21 01:26:24;;;;;;;6.73;4.80;;;-2.40;89.00;;;;;;5055784;28;20242;-86
2021/12/21 01:34:11;;;;;;;9.13;4.87;;;-2.40;89.40;;;;;;5056055;28;20172;-86
2021/12/21 01:36:46;;;;;;;6.57;4.60;;;-2.50;89.30;;;;;;5054491;28;20208;-86
2021/12/21 01:41:56;;;;;;;8.67;4.67;;;-2.40;89.10;;;;;;5055879;28;20616;-86
2021/12/21 01:49:50;;;;;;;9.77;5.23;;;-2.50;89.10;;;;;;5055876;28;20241;-86
2021/12/21 01:52:25;;;;;;;9.50;5.77;;;-2.50;89.20;;;;;;5054983;28;20247;-86
2021/12/21 01:54:51;;;;;;;6.80;5.30;;;-2.50;89.50;;;;;;5054165;28;20174;-86
2021/12/21 01:57:17;;;;;;;10.97;5.83;;;-2.40;90.10;;;;;;5053169;28;20207;-86
2021/12/21 01:59:45;;;;;;;5.77;4.93;;;-2.40;90.30;;;;;;5053871;28;20194;-86
2021/12/21 02:02:13;;;;;;;6.20;5.20;;;-2.50;90.30;;;;;;5054065;28;20547;-86
2021/12/21 02:04:40;;;;;;;6.97;5.10;;;-2.50;90.20;;;;;;5055308;28;20174;-86
2021/12/21 02:07:06;;;;;;;5.97;5.13;;;-2.50;90.10;;;;;;5055170;28;20169;-86
2021/12/21 02:09:38;;;;;;;7.20;4.83;;;-2.60;90.00;;;;;;5055347;28;20207;-86
2021/12/21 02:12:10;;;;;;;8.90;4.80;;;-2.60;89.80;;;;;;5053857;28;20175;-86
2021/12/21 02:14:37;;;;;;;7.53;4.70;;;-2.60;89.70;;;;;;5054968;28;20160;-86
2021/12/21 02:17:39;;;;;;;8.40;4.90;;;-2.60;89.50;;;;;;5054792;28;20221;-86
2021/12/21 02:22:49;;;;;;;5.67;4.40;;;-2.60;89.40;;;;;;5054956;28;20145;-86
2021/12/21 02:27:59;;;;;;;5.00;4.50;;;-2.70;89.20;;;;;;5054779;28;20168;-86
2021/12/21 02:30:25;;;;;;;5.90;4.50;;;-2.70;89.10;;;;;;5053451;28;20196;-85
2021/12/21 02:32:52;;;;;;;7.93;4.60;;;-2.70;89.00;;;;;;5054669;28;20232;-86
2021/12/21 02:35:18;;;;;;;7.83;4.47;;;-2.70;88.90;;;;;;5053555;28;20547;-86
2021/12/21 02:37:44;;;;;;;7.43;4.70;;;-2.70;88.80;;;;;;5053535;28;20221;-86
2021/12/21 02:40:10;;;;;;;12.47;4.83;;;-2.70;88.70;;;;;;5054586;28;20194;-85
2021/12/21 02:42:36;;;;;;;5.57;4.50;;;-2.70;88.70;;;;;;5053471;28;20177;-86
2021/12/21 02:45:03;;;;;;;6.40;5.23;;;-2.80;88.50;;;;;;5053451;28;20182;-86
2021/12/21 02:47:29;;;;;;;6.63;5.00;;;-2.80;89.10;;;;;;5053051;28;20210;-86
2021/12/21 02:49:54;;;;;;;7.07;5.83;;;-2.80;90.00;;;;;;5052882;28;20292;-86
2021/12/21 02:52:20;;;;;;;8.93;7.07;;;-2.80;90.40;;;;;;5054239;28;20166;-86
2021/12/21 02:54:46;;;;;;;14.53;6.77;;;-2.80;90.60;;;;;;5054248;28;20546;-86
2021/12/21 02:57:11;;;;;;;13.30;7.97;;;-2.80;90.80;;;;;;5054371;28;20242;-86
2021/12/21 02:59:37;;;;;;;15.30;8.57;;;-2.80;90.90;;;;;;5052843;28;20183;-85
2021/12/21 03:02:03;;;;;;;12.17;8.93;;;-2.70;91.30;;;;;;5054143;28;20170;-86
2021/12/21 03:04:28;;;;;;;11.00;8.67;;;-2.70;91.40;;;;;;5054138;28;20203;-86
2021/12/21 03:12:30;;;;;;;10.80;8.40;;;-2.70;91.70;;;;;;5054342;28;20244;-86
2021/12/21 03:14:56;;;;;;;10.50;8.17;;;-2.70;91.70;;;;;;5052605;28;20231;-86
2021/12/21 03:17:22;;;;;;;10.13;7.40;;;-2.60;91.60;;;;;;5053845;28;20189;-86
2021/12/21 03:19:48;;;;;;;10.53;7.93;;;-2.60;91.40;;;;;;5053940;28;20193;-85
2021/12/21 03:22:14;;;;;;;9.90;7.03;;;-2.60;91.20;;;;;;5052642;28;20175;-86
2021/12/21 03:24:43;;;;;;;8.80;7.00;;;-2.70;91.10;;;;;;5052671;28;20176;-86
2021/12/21 03:27:09;;;;;;;11.00;7.57;;;-2.70;91.00;;;;;;5052855;28;20200;-86
2021/12/21 03:29:35;;;;;;;8.50;6.80;;;-2.80;91.00;;;;;;5053569;28;20172;-86
2021/12/21 03:32:01;;;;;;;11.13;7.10;;;-2.70;90.90;;;;;;5052536;28;20506;-86
2021/12/21 03:34:27;;;;;;;7.83;6.17;;;-2.80;90.70;;;;;;5052431;28;20173;-86
2021/12/21 03:36:53;;;;;;;10.07;6.97;;;-2.80;90.60;;;;;;5052274;28;20196;-86
2021/12/21 03:39:22;;;;;;;9.97;7.30;;;-2.70;90.50;;;;;;5052623;28;20201;-86
2021/12/21 03:41:54;;;;;;;8.13;6.57;;;-2.70;90.40;;;;;;5052238;28;20548;-86
2021/12/21 03:44:21;;;;;;;12.77;6.10;;;-2.80;90.30;;;;;;5052185;28;20257;-86
2021/12/21 03:46:50;;;;;;;9.33;6.70;;;-2.70;90.20;;;;;;5053381;28;20237;-86
2021/12/21 03:49:51;;;;;;;5.90;5.30;;;-2.80;90.10;;;;;;5052188;28;20184;-86
2021/12/21 03:52:16;;;;;;;53.30;7.20;;;-2.70;90.10;;;;;;5078489;22;20303;-88
2021/12/21 03:54:45;;;;;;;72.13;7.83;;;-2.80;89.90;;;;;;5052370;28;20198;-88
2021/12/21 03:57:11;;;;;;;8.30;6.43;;;-2.90;90.00;;;;;;5052407;28;20646;-88
2021/12/21 03:59:38;;;;;;;13.67;7.30;;;-2.90;90.10;;;;;;5052213;28;20175;-87
2021/12/21 04:02:05;;;;;;;18.80;6.50;;;-2.90;90.10;;;;;;5052086;28;20664;-87
2021/12/21 04:04:31;;;;;;;20.77;8.33;;;-2.90;90.00;;;;;;5052287;28;20212;-88
2021/12/21 04:06:57;;;;;;;33.80;7.77;;;-2.90;89.90;;;;;;5052573;28;20183;-87
2021/12/21 04:09:23;;;;;;;36.47;8.23;;;-2.90;90.10;;;;;;5053317;28;20185;-88
2021/12/21 04:11:48;;;;;;;17.13;7.93;;;-3.00;90.20;;;;;;5052124;28;20251;-87
2021/12/21 04:14:16;;;;;;;8.63;7.07;;;-3.00;90.20;;;;;;5052149;28;20177;-87
2021/12/21 04:16:42;;;;;;;15.07;8.37;;;-3.00;90.20;;;;;;5051995;28;20226;-88
2021/12/21 04:19:08;;;;;;;16.67;8.20;;;-3.00;90.00;;;;;;5052078;28;20262;-87
2021/12/21 04:21:34;;;;;;;14.63;7.10;;;-3.00;89.80;;;;;;5054532;28;20196;-87
2021/12/21 04:23:59;;;;;;;13.10;7.17;;;-3.10;89.70;;;;;;5056343;28;20182;-88
2021/12/21 04:26:25;;;;;;;11.97;6.83;;;-3.10;89.60;;;;;;5056412;28;20269;-88
2021/12/21 04:28:51;;;;;;;10.87;6.57;;;-3.10;89.50;;;;;;5057537;28;20194;-88
2021/12/21 04:31:16;;;;;;;11.03;7.13;;;-3.10;89.40;;;;;;5055821;28;20247;-88
2021/12/21 04:33:43;;;;;;;12.17;6.63;;;-3.10;89.40;;;;;;5055904;28;20176;-88
2021/12/21 04:36:11;;;;;;;13.40;7.43;;;-3.10;89.30;;;;;;5056193;28;20187;-88
2021/12/21 04:38:40;;;;;;;21.37;10.13;;;-3.10;89.10;;;;;;5055940;28;20233;-88
2021/12/21 04:43:35;;;;;;;56.40;11.33;;;-3.40;88.80;;;;;;5057278;28;20279;-88
2021/12/21 04:46:01;;;;;;;67.00;12.40;;;-3.50;89.30;;;;;;5056904;28;20176;-88
2021/12/21 04:48:26;;;;;;;60.23;13.30;;;-3.50;89.70;;;;;;5055467;28;20249;-88
2021/12/21 04:50:53;;;;;;;21.67;11.93;;;-3.40;90.10;;;;;;5055191;28;20213;-88
2021/12/21 04:53:19;;;;;;;18.67;11.83;;;-3.40;90.20;;;;;;5056873;28;20199;-88
2021/12/21 04:55:44;;;;;;;18.33;11.77;;;-3.40;90.10;;;;;;5055436;28;20257;-88
2021/12/21 04:58:10;;;;;;;20.10;12.23;;;-3.40;90.20;;;;;;5055360;28;20670;-88
2021/12/21 05:00:37;;;;;;;16.63;10.57;;;-3.40;90.10;;;;;;5055289;28;20192;-88
2021/12/21 05:03:04;;;;;;;35.23;12.13;;;-3.50;90.10;;;;;;5055296;28;20176;-88
2021/12/21 05:05:30;;;;;;;22.27;10.87;;;-3.50;90.10;;;;;;5055374;28;20592;-88
2021/12/21 05:08:08;;;;;;;25.10;12.17;;;-3.50;90.40;;;;;;5055415;28;20182;-88
2021/12/21 05:10:54;;;;;;;21.43;9.27;;;-3.50;90.70;;;;;;5055169;28;20176;-88
2021/12/21 05:13:24;;;;;;;28.17;7.87;;;-3.50;91.00;;;;;;5055234;28;20521;-88
2021/12/21 05:15:50;;;;;;;19.40;9.30;;;-3.50;91.30;;;;;;5055148;28;20270;-88
2021/12/21 05:18:16;;;;;;;37.90;8.80;;;-3.50;91.50;;;;;;5054937;28;20288;-88
2021/12/21 05:20:42;;;;;;;35.93;11.20;;;-3.50;91.70;;;;;;5054993;28;20182;-88
2021/12/21 05:23:08;;;;;;;45.43;10.10;;;-3.50;91.80;;;;;;5056281;28;20612;-88
2021/12/21 05:25:35;;;;;;;52.97;11.63;;;-3.50;91.80;;;;;;5055573;28;20180;-88
2021/12/21 05:28:01;;;;;;;26.90;11.07;;;-3.50;91.90;;;;;;5056155;28;20612;-88
2021/12/21 05:30:27;;;;;;;36.83;10.77;;;-3.50;91.80;;;;;;5055134;28;20542;-87
2021/12/21 05:32:55;;;;;;;44.57;11.80;;;-3.50;91.90;;;;;;5053969;28;20184;-88
2021/12/21 05:35:22;;;;;;;39.20;12.03;;;-3.50;92.00;;;;;;5054746;28;20177;-88
2021/12/21 05:37:52;;;;;;;40.63;11.67;;;-3.50;92.10;;;;;;5054633;28;20786;-88
2021/12/21 05:40:19;;;;;;;40.10;12.33;;;-3.50;92.20;;;;;;5054712;28;20192;-88
2021/12/21 05:42:46;;;;;;;60.83;12.67;;;-3.40;92.40;;;;;;5054487;28;20231;-88
2021/12/21 05:45:14;;;;;;;72.07;12.47;;;-3.40;92.50;;;;;;5056068;28;20216;-88
2021/12/21 05:47:40;;;;;;;87.50;12.60;;;-3.40;92.60;;;;;;5056039;28;20172;-88
2021/12/21 05:50:11;;;;;;;41.87;11.30;;;-3.40;92.60;;;;;;5055650;28;20254;-88
2021/12/21 05:52:37;;;;;;;34.53;10.53;;;-3.40;92.60;;;;;;5055538;28;20207;-88
2021/12/21 05:55:05;;;;;;;35.23;10.53;;;-3.40;92.60;;;;;;5054469;28;20261;-88
2021/12/21 05:57:31;;;;;;;34.77;11.00;;;-3.40;92.70;;;;;;5054398;28;20200;-88
2021/12/21 05:59:57;;;;;;;49.33;12.17;;;-3.40;92.80;;;;;;5054277;28;20176;-88
2021/12/21 06:02:22;;;;;;;38.97;11.23;;;-3.50;92.90;;;;;;5055497;28;20279;-88
2021/12/21 06:04:48;;;;;;;32.73;11.97;;;-3.50;92.90;;;;;;5055451;28;20624;-88
2021/12/21 06:07:14;;;;;;;16.57;11.53;;;-3.50;93.00;;;;;;5055310;28;20528;-88
2021/12/21 06:09:41;;;;;;;18.47;11.50;;;-3.40;93.10;;;;;;5054071;28;20185;-88
2021/12/21 06:25:57;;;;;;;19.77;9.47;;;-3.60;92.70;;;;;;5055334;28;20570;-88
2021/12/21 06:28:23;;;;;;;47.47;10.43;;;-3.60;92.70;;;;;;5053748;28;20173;-88
2021/12/21 06:30:49;;;;;;;62.27;10.83;;;-3.50;92.70;;;;;;5053539;28;20197;-88
2021/12/21 06:33:15;;;;;;;86.77;10.77;;;-3.50;92.60;;;;;;5054859;28;20569;-88
2021/12/21 06:35:41;;;;;;;11.23;8.80;;;-3.50;92.60;;;;;;5053517;28;20271;-88
2021/12/21 06:38:07;;;;;;;15.73;10.53;;;-3.50;92.60;;;;;;5054764;28;20189;-88
2021/12/21 06:40:33;;;;;;;13.13;10.10;;;-3.50;92.60;;;;;;5054626;28;20251;-88
2021/12/21 06:43:02;;;;;;;12.73;9.40;;;-3.50;92.50;;;;;;5053439;28;20181;-87
2021/12/21 06:53:33;;;;;;;17.30;10.10;;;-3.60;92.10;;;;;;5054758;28;20158;-88
2021/12/21 06:55:59;;;;;;;14.20;10.13;;;-3.60;91.80;;;;;;5054277;28;20552;-88
2021/12/21 06:58:24;;;;;;;15.30;10.27;;;-3.60;91.80;;;;;;5052998;28;20252;-88
2021/12/21 07:00:52;;;;;;;64.03;11.27;;;-3.60;91.70;;;;;;5053228;28;20245;-88
2021/12/21 07:03:19;;;;;;;47.60;12.20;;;-3.60;91.50;;;;;;5053902;28;20176;-87
2021/12/21 07:05:47;;;;;;;87.40;13.00;;;-3.60;91.70;;;;;;5052789;28;20261;-87
2021/12/21 07:08:16;;;;;;;30.00;12.97;;;-3.70;91.80;;;;;;5054089;28;20172;-87
2021/12/21 07:10:52;;;;;;;20.07;12.40;;;-3.60;92.00;;;;;;5052772;28;20181;-87
2021/12/21 07:18:46;;;;;;;45.37;14.87;;;-3.60;91.70;;;;;;5054470;28;20159;-87
2021/12/21 07:21:11;;;;;;;52.63;14.87;;;-3.60;91.60;;;;;;5053203;28;20204;-87
2021/12/21 07:23:37;;;;;;;74.50;14.40;;;-3.70;91.30;;;;;;5053721;28;20173;-87
2021/12/21 07:26:03;;;;;;;22.27;14.50;;;-3.90;91.20;;;;;;5052598;28;20266;-87
2021/12/21 07:28:28;;;;;;;28.37;15.90;;;-3.90;91.20;;;;;;5053679;28;20253;-87
2021/12/21 07:30:56;;;;;;;33.87;16.47;;;-3.90;91.30;;;;;;5052333;28;20572;-87
2021/12/21 07:33:21;;;;;;;26.70;16.70;;;-3.90;91.40;;;;;;5053680;28;20168;-87
2021/12/21 07:35:47;;;;;;;25.97;15.47;;;-3.80;91.40;;;;;;5052398;28;20176;-87
2021/12/21 07:38:13;;;;;;;26.23;15.13;;;-3.80;91.40;;;;;;5052289;28;20210;-87
2021/12/21 07:40:39;;;;;;;25.10;14.37;;;-3.80;91.40;;;;;;5052360;28;20301;-87
2021/12/21 07:43:05;;;;;;;26.40;14.30;;;-3.80;91.40;;;;;;5052190;28;20198;-87
2021/12/21 07:45:31;;;;;;;28.07;14.87;;;-3.80;91.40;;;;;;5053386;28;20192;-87
2021/12/21 07:47:57;;;;;;;27.23;15.07;;;-3.70;91.40;;;;;;5052053;28;20640;-87
2021/12/21 07:50:23;;;;;;;29.87;14.53;;;-3.70;91.30;;;;;;5052039;28;20181;-87
2021/12/21 07:52:51;;;;;;;26.80;14.77;;;-3.70;91.30;;;;;;5051937;28;20216;-87
2021/12/21 07:55:17;;;;;;;26.83;13.77;;;-3.70;91.10;;;;;;5051436;28;20186;-87
2021/12/21 07:57:43;;;;;;;22.77;14.00;;;-3.70;91.00;;;;;;5051915;28;20203;-87
2021/12/21 08:00:10;;;;;;;25.47;13.50;;;-3.80;90.90;;;;;;5051956;28;20231;-87
2021/12/21 08:02:39;;;;;;;28.07;13.57;;;-3.80;90.80;;;;;;5051807;28;20283;-87
2021/12/21 08:05:07;;;;;;;34.53;15.03;;;-3.80;90.70;;;;;;5051997;28;20175;-87
2021/12/21 08:07:37;;;;;;;30.40;14.33;;;-3.80;90.70;;;;;;5053222;28;20168;-87
2021/12/21 08:10:18;;;;;;;25.30;12.93;;;-3.70;90.60;;;;;;5052871;28;20164;-87
2021/12/21 08:12:44;;;;;;;32.00;14.50;;;-3.80;90.50;;;;;;5053123;28;20543;-87
2021/12/21 08:15:10;;;;;;;25.10;13.83;;;-3.80;90.40;;;;;;5051918;28;20176;-87
2021/12/21 08:17:35;;;;;;;25.27;13.20;;;-3.80;90.30;;;;;;5052670;28;20294;-87
2021/12/21 08:20:01;;;;;;;24.83;13.43;;;-3.80;90.20;;;;;;5051836;28;20167;-87
2021/12/21 08:22:26;;;;;;;21.67;13.30;;;-3.80;90.10;;;;;;5051993;28;20731;-87
2021/12/21 08:24:52;;;;;;;24.50;12.97;;;-3.80;90.00;;;;;;5053037;28;20164;-87
2021/12/21 08:27:18;;;;;;;17.03;10.93;;;-3.80;89.90;;;;;;5051808;28;20177;-87
2021/12/21 08:29:43;;;;;;;19.73;11.57;;;-3.70;89.90;;;;;;5051783;28;20175;-87
2021/12/21 08:32:09;;;;;;;18.87;11.50;;;-3.70;89.80;;;;;;5051652;28;20200;-88
2021/12/21 08:34:35;;;;;;;22.60;11.17;;;-3.60;89.80;;;;;;5052945;28;20180;-87
2021/12/21 08:37:01;;;;;;;18.20;10.73;;;-3.60;89.80;;;;;;5052796;28;20203;-87
2021/12/21 08:39:27;;;;;;;15.10;10.03;;;-3.60;89.80;;;;;;5051599;28;20313;-87
2021/12/21 08:41:58;;;;;;;14.57;8.77;;;-3.70;89.80;;;;;;5051576;28;20278;-87
2021/12/21 08:44:27;;;;;;;16.87;9.27;;;-3.60;89.90;;;;;;5051682;28;20621;-87
2021/12/21 08:46:57;;;;;;;13.17;9.20;;;-3.60;89.90;;;;;;5051575;28;20183;-87
2021/12/21 08:49:23;;;;;;;13.67;9.60;;;-3.60;89.90;;;;;;5051616;28;20183;-87
2021/12/21 08:51:48;;;;;;;16.33;8.40;;;-3.60;90.00;;;;;;5051388;28;20212;-87
2021/12/21 08:54:14;;;;;;;14.20;9.00;;;-3.60;90.00;;;;;;5051530;28;20176;-87
2021/12/21 08:56:40;;;;;;;16.10;9.57;;;-3.60;90.00;;;;;;5051415;28;20192;-87
2021/12/21 08:59:05;;;;;;;16.27;9.70;;;-3.60;90.00;;;;;;5052641;28;20169;-87
2021/12/21 09:01:31;;;;;;;12.53;9.70;;;-3.50;90.20;;;;;;5052682;28;20208;-87
2021/12/21 09:03:57;;;;;;;20.43;10.80;;;-3.50;90.40;;;;;;5051517;28;20172;-87
2021/12/21 09:06:24;;;;;;;17.30;10.83;;;-3.40;90.80;;;;;;5052011;28;20172;-87
2021/12/21 09:08:50;;;;;;;15.50;10.87;;;-3.30;91.10;;;;;;5055093;28;20179;-87
2021/12/21 09:11:16;;;;;;;17.63;10.80;;;-3.30;91.30;;;;;;5055013;28;20566;-87
2021/12/21 09:13:41;;;;;;;18.03;11.63;;;-3.10;91.60;;;;;;5054987;28;20197;-88
2021/12/21 09:16:07;;;;;;;19.80;12.57;;;-3.10;91.90;;;;;;5056194;28;20160;-88
2021/12/21 09:18:32;;;;;;;17.83;12.77;;;-2.90;92.10;;;;;;5054948;28;20605;-87
2021/12/21 09:20:58;;;;;;;13.93;11.73;;;-2.90;92.40;;;;;;5054698;28;20196;-87
2021/12/21 09:23:24;;;;;;;16.77;12.43;;;-2.70;92.80;;;;;;5056094;28;20176;-87
2021/12/21 09:25:50;;;;;;;17.03;12.63;;;-2.50;93.10;;;;;;5056008;28;20165;-87
2021/12/21 09:28:15;;;;;;;22.00;14.13;;;-2.40;93.20;;;;;;5056256;28;20177;-87
2021/12/21 09:30:41;;;;;;;18.83;14.00;;;-2.30;93.30;;;;;;5055365;28;20181;-87
2021/12/21 09:33:07;;;;;;;20.13;14.10;;;-2.20;93.40;;;;;;5054686;28;20180;-87
2021/12/21 09:35:33;;;;;;;22.43;15.17;;;-2.10;93.60;;;;;;5054668;28;20647;-87
2021/12/21 09:37:58;;;;;;;22.10;15.67;;;-2.10;93.70;;;;;;5054516;28;20247;-87
2021/12/21 09:40:28;;;;;;;21.70;14.40;;;-2.00;93.70;;;;;;5054619;28;20271;-87
2021/12/21 09:42:55;;;;;;;20.77;14.97;;;-2.00;93.70;;;;;;5054477;28;20272;-87
2021/12/21 09:45:21;;;;;;;15.33;13.33;;;-2.00;93.70;;;;;;5054505;28;20648;-87
2021/12/21 09:47:49;;;;;;;20.37;12.50;;;-2.10;93.70;;;;;;5054485;28;20186;-87
2021/12/21 09:50:15;;;;;;;16.93;12.87;;;-2.10;93.60;;;;;;5055597;28;20179;-87
2021/12/21 09:52:41;;;;;;;18.43;13.53;;;-2.10;93.70;;;;;;5054616;28;20220;-88
2021/12/21 09:55:11;;;;;;;16.87;13.17;;;-2.10;93.70;;;;;;5054591;28;20189;-88
2021/12/21 09:57:37;;;;;;;21.43;14.77;;;-2.10;93.70;;;;;;5054154;28;20215;-87
2021/12/21 10:00:09;;;;;;;23.00;15.40;;;-2.00;93.70;;;;;;5055371;28;20616;-87
2021/12/21 10:02:35;;;;;;;23.37;14.83;;;-1.80;93.90;;;;;;5054073;28;20206;-87
2021/12/21 10:05:06;;;;;;;24.47;15.83;;;-1.80;94.00;;;;;;5054113;28;20231;-87
2021/12/21 10:07:33;;;;;;;28.50;16.63;;;-1.80;94.00;;;;;;5054447;28;20175;-87
2021/12/21 10:10:18;;;;;;;27.83;16.93;;;-1.80;94.00;;;;;;5053997;28;20188;-87
2021/12/21 10:12:46;;;;;;;19.37;16.17;;;-1.70;94.10;;;;;;5055537;28;20218;-88
2021/12/21 10:15:23;;;;;;;26.57;15.50;;;-1.60;94.10;;;;;;5054006;28;20194;-87
2021/12/21 10:17:50;;;;;;;26.50;16.07;;;-1.70;94.00;;;;;;5054833;28;20189;-87
2021/12/21 10:20:39;;;;;;;23.57;16.00;;;-1.70;94.10;;;;;;5053419;28;20182;-87
2021/12/21 10:23:16;;;;;;;24.37;17.40;;;-1.60;94.10;;;;;;5055227;28;20158;-87
2021/12/21 10:25:43;;;;;;;34.37;18.10;;;-1.40;94.20;;;;;;5055109;28;20162;-87
2021/12/21 10:28:09;;;;;;;26.07;19.77;;;-1.30;94.30;;;;;;5053980;28;20182;-87
2021/12/21 10:30:47;;;;;;;30.60;19.00;;;-1.10;94.30;;;;;;5054167;28;20186;-88
2021/12/21 10:33:14;;;;;;;25.50;18.73;;;-1.00;94.30;;;;;;5053835;28;20171;-88
2021/12/21 10:35:39;;;;;;;28.37;19.80;;;-0.90;94.40;;;;;;5053644;28;20198;-88
2021/12/21 10:38:05;;;;;;;32.57;20.40;;;-0.70;94.50;;;;;;5053694;28;20271;-88
2021/12/21 10:40:31;;;;;;;29.57;20.27;;;-0.60;94.50;;;;;;5053640;28;20656;-88
2021/12/21 10:43:03;;;;;;;28.40;20.20;;;-0.50;94.50;;;;;;5053695;28;20179;-88
2021/12/21 10:45:35;;;;;;;26.97;19.17;;;-0.30;94.60;;;;;;5053729;28;20172;-88
2021/12/21 10:48:04;;;;;;;28.33;21.10;;;-0.20;94.50;;;;;;5053532;28;20640;-88
2021/12/21 10:50:33;;;;;;;25.63;19.87;;;0.00;94.60;;;;;;5053604;28;20179;-88
2021/12/21 10:53:00;;;;;;;27.83;20.47;;;0.00;94.50;;;;;;5053381;28;20180;-88
2021/12/21 10:55:35;;;;;;;33.83;20.93;;;0.00;94.30;;;;;;5053409;28;20174;-88
2021/12/21 10:58:16;;;;;;;28.27;20.60;;;0.10;94.40;;;;;;5053226;28;20191;-88
2021/12/21 11:01:05;;;;;;;32.60;22.30;;;0.30;94.30;;;;;;5054561;28;20165;-88
2021/12/21 11:03:36;;;;;;;27.70;20.80;;;0.40;94.20;;;;;;5053789;28;20632;-88
2021/12/21 11:06:17;;;;;;;28.10;21.27;;;0.50;94.10;;;;;;5054667;28;20154;-88
2021/12/21 11:08:46;;;;;;;31.17;22.10;;;0.70;94.00;;;;;;5053274;28;20167;-88
2021/12/21 11:11:32;;;;;;;27.87;22.13;;;0.90;94.00;;;;;;5053318;28;20253;-88
2021/12/21 11:14:10;;;;;;;27.13;21.83;;;0.90;93.60;;;;;;5053415;28;20166;-89
2021/12/21 11:16:35;;;;;;;26.87;21.93;;;1.10;93.60;;;;;;5053207;28;20542;-88
2021/12/21 11:19:02;;;;;;;31.03;20.27;;;1.20;93.30;;;;;;5054381;28;20180;-88
2021/12/21 11:21:30;;;;;;;24.97;20.83;;;1.40;93.30;;;;;;5053020;28;20194;-88
2021/12/21 11:23:57;;;;;;;26.60;19.23;;;1.50;93.10;;;;;;5053040;28;20648;-88
2021/12/21 11:26:26;;;;;;;24.50;19.83;;;1.60;92.70;;;;;;5053307;28;20185;-88
2021/12/21 11:28:55;;;;;;;25.13;18.73;;;1.80;92.50;;;;;;5053446;28;20202;-89
2021/12/21 11:31:22;;;;;;;28.30;19.23;;;1.90;92.00;;;;;;5052173;28;20219;-88
2021/12/21 11:33:55;;;;;;;32.13;18.40;;;2.00;91.80;;;;;;5053300;28;20182;-89
2021/12/21 11:39:07;;;;;;;25.43;16.13;;;2.30;91.40;;;;;;5054100;28;20540;-89
2021/12/21 11:41:35;;;;;;;17.73;14.63;;;2.30;90.60;;;;;;5054224;28;20230;-89
2021/12/21 11:44:11;;;;;;;17.40;14.30;;;2.50;90.50;;;;;;5054062;28;20179;-89
2021/12/21 11:46:51;;;;;;;18.70;14.63;;;2.70;89.60;;;;;;5052702;28;20163;-89
2021/12/21 11:49:25;;;;;;;24.97;13.90;;;2.90;89.40;;;;;;5054045;28;20251;-89
2021/12/21 11:51:51;;;;;;;21.93;14.10;;;2.80;88.30;;;;;;5052889;28;20211;-89
2021/12/21 11:54:22;;;;;;;17.87;14.07;;;2.90;88.60;;;;;;5053285;28;20249;-89
2021/12/21 11:56:47;;;;;;;17.43;13.93;;;2.90;88.30;;;;;;5053832;28;20189;-89
2021/12/21 11:59:21;;;;;;;19.40;13.07;;;3.00;88.60;;;;;;5053682;28;20182;-89
2021/12/21 12:01:47;;;;;;;21.47;13.70;;;3.10;88.10;;;;;;5053921;28;20202;-89
2021/12/21 12:04:13;;;;;;;22.67;13.73;;;3.00;87.80;;;;;;5052367;28;20317;-89
2021/12/21 12:06:48;;;;;;;18.50;13.30;;;3.10;88.10;;;;;;5054239;28;20176;-89
2021/12/21 12:09:30;;;;;;;16.07;12.73;;;3.30;87.30;;;;;;5054919;28;20270;-90
2021/12/21 12:12:12;;;;;;;16.03;11.97;;;3.30;87.00;;;;;;5058472;28;20207;-90
2021/12/21 12:14:39;;;;;;;20.40;13.90;;;3.40;86.90;;;;;;5054113;28;20172;-89
2021/12/21 12:17:22;;;;;;;21.73;12.37;;;3.40;86.60;;;;;;5054416;28;20566;-89
2021/12/21 12:19:58;;;;;;;16.70;11.83;;;3.40;86.30;;;;;;5054753;28;20168;-89
2021/12/21 12:22:33;;;;;;;18.83;11.80;;;3.60;86.20;;;;;;5054492;28;20211;-89
2021/12/21 12:24:59;;;;;;;15.80;10.73;;;3.40;85.90;;;;;;5055116;28;20184;-89
2021/12/21 12:27:28;;;;;;;17.40;11.33;;;3.60;86.80;;;;;;5054612;28;20187;-89
2021/12/21 12:30:08;;;;;;;22.20;11.67;;;3.00;85.00;;;;;;5054345;28;20184;-89
2021/12/21 12:32:43;;;;;;;19.50;11.33;;;2.80;85.80;;;;;;5054106;28;20209;-89
2021/12/21 12:35:16;;;;;;;14.40;10.90;;;3.10;86.40;;;;;;5055405;28;20247;-89
2021/12/21 12:37:49;;;;;;;15.17;10.77;;;3.20;85.60;;;;;;5053791;28;20192;-89
2021/12/21 12:40:18;;;;;;;14.73;10.50;;;3.70;85.90;;;;;;5055110;28;20198;-89
2021/12/21 12:42:53;;;;;;;22.43;10.47;;;3.70;83.80;;;;;;5056858;28;20196;-89
2021/12/21 12:45:22;;;;;;;17.23;10.57;;;3.40;83.80;;;;;;5057724;28;20163;-89
2021/12/21 12:47:53;;;;;;;15.50;9.70;;;3.60;83.80;;;;;;5056042;28;20194;-89
2021/12/21 12:50:28;;;;;;;20.17;10.07;;;3.70;83.40;;;;;;5056184;28;20176;-90
2021/12/21 12:52:58;;;;;;;17.40;8.93;;;3.90;82.90;;;;;;5056053;28;20228;-90
2021/12/21 12:55:35;;;;;;;20.27;8.73;;;3.70;81.90;;;;;;5057733;28;20256;-90
2021/12/21 12:58:11;;;;;;;19.03;9.50;;;3.60;80.90;;;;;;5056059;28;20195;-89
2021/12/21 13:00:37;;;;;;;17.47;10.30;;;3.40;82.00;;;;;;5056426;28;20586;-91
2021/12/21 13:03:07;;;;;;;13.60;8.37;;;3.40;80.60;;;;;;5055906;28;20176;-90
2021/12/21 13:05:41;;;;;;;14.17;8.40;;;3.60;82.20;;;;;;5056385;28;20198;-90
2021/12/21 13:08:18;;;;;;;13.77;7.63;;;3.80;81.40;;;;;;5055823;28;20164;-90
2021/12/21 13:10:46;;;;;;;15.20;8.30;;;3.90;80.80;;;;;;5055930;28;20181;-90
2021/12/21 13:13:12;;;;;;;15.57;7.80;;;3.90;80.40;;;;;;5056307;28;20183;-90
2021/12/21 13:15:50;;;;;;;12.23;7.53;;;3.80;80.70;;;;;;5057187;28;20173;-90
2021/12/21 13:18:17;;;;;;;15.30;8.50;;;3.80;80.70;;;;;;5055774;28;20205;-90
2021/12/21 13:20:52;;;;;;;15.87;8.87;;;3.70;80.70;;;;;;5055587;28;20196;-90
2021/12/21 13:23:22;;;;;;;10.40;7.77;;;3.70;81.30;;;;;;5055503;28;20176;-90
2021/12/21 13:26:03;;;;;;;12.57;8.57;;;3.60;81.50;;;;;;5056077;28;20179;-90
2021/12/21 13:28:31;;;;;;;14.93;8.27;;;3.40;82.30;;;;;;5055503;28;20180;-90
2021/12/21 13:30:58;;;;;;;14.43;8.37;;;3.50;82.00;;;;;;5057205;28;20212;-90
2021/12/21 13:33:27;;;;;;;15.30;8.60;;;3.00;82.30;;;;;;5057693;28;20173;-90
2021/12/21 13:35:57;;;;;;;15.40;8.33;;;3.10;82.90;;;;;;5057505;28;20176;-90
2021/12/21 13:38:25;;;;;;;19.87;8.83;;;3.00;83.10;;;;;;5055244;28;20688;-90
2021/12/21 13:41:07;;;;;;;18.30;8.83;;;2.90;83.80;;;;;;5055437;28;20210;-90
2021/12/21 13:43:35;;;;;;;18.03;8.40;;;2.80;83.50;;;;;;5054740;28;20181;-89
2021/12/21 13:46:04;;;;;;;15.53;7.83;;;2.90;83.60;;;;;;5055684;28;20234;-89
2021/12/21 13:48:31;;;;;;;14.87;8.77;;;2.80;83.50;;;;;;5054451;28;20176;-89
2021/12/21 13:51:12;;;;;;;18.63;8.23;;;2.90;83.30;;;;;;5054256;28;20274;-89
2021/12/21 13:53:51;;;;;;;17.70;9.90;;;2.80;83.10;;;;;;5053298;28;20263;-89